< < Back
Terminal Aerodrome Forecast


Current Version              Previous Versions:   1  2  3  4  5  6  7  8  9  

Terminal Aerodrome Forecast

366
FTUS42 KJAX 290545
TAFGNV
TAF
KGNV 290545Z 2906/3006 00000KT P6SM FEW050 SCT250
     FM291300 27005KT P6SM FEW045 FEW250
     FM292300 18008KT P6SM SCT050 SCT250
     FM300100 21005KT P6SM SCT050 SCT150 BKN250=



Latest METAR

007
SAUS70 KWBC 291400 RRB
MTRGNV
METAR KGNV 291353Z 30006KT 10SM CLR 31/23 A3007 RMK AO2 SLP179
T03060228


USA.gov is the U.S. government's official web portal to all federal, state and local government web resources and services.